Elmendorf Air Force Base Anchorage US
ICAO: PAED
IATA:
Category: Medium
Scheduled Services:

Elevation: 212 ft
TransAlt. 18000 ft.

Airport Communications:
ANCHORAGE APP/DEP:118.6
DENALI:134.1
ATIS:124.3
RESCUE COORD CNTR:123.1
GND:121.8
OPS:38.1
PMSV METRO:34.66
PTD:37.22
SFA:32.71
TWR:127.2

PAED Zoom In..

Runways:

(A) RW 06 length 10000 ft width 200 ft
ILS 110.30 / hdg 62

(B) RW 16 length 7493 ft width 150 ft
---- / hdg 162

(C) RW 24 length 10000 ft width 200 ft
---- / hdg 242

(D) RW 34 length 7493 ft width 150 ft
---- / hdg 342

Location; PAED
Day. 19 / Time. 03.56 Zulu
* Altimeter: 30.15
* Temperature: 19° c. 66.2°f.
* Wind from: 230° Speed 09 kn.
Dewpoint: 09° c.
Visibility: 10 Statute Miles.
Clouds: Few 5000 ft.
Clouds: Scattered 2000 ft.

PAED 190356Z 23009KT 10SM FEW050 SCT200 19/09 A3015 RMK AO2A SLP205 T01930086


Wind From 230°
Speed 09 kn.

 
 
jpsmedia.com for Web Design worldairports.se 2018   terms of use